createdAt,value
2023-10-20T00:01:11.202Z,1001
2023-10-20T00:11:11.183Z,1001
2023-10-20T00:21:11.446Z,1001
2023-10-20T00:31:11.162Z,1001
2023-10-20T00:41:11.157Z,1001
2023-10-20T00:51:11.157Z,1001
2023-10-20T01:01:11.226Z,1000
2023-10-20T01:11:11.249Z,1001
2023-10-20T01:21:11.201Z,1001
2023-10-20T01:31:11.228Z,1000
2023-10-20T01:41:11.258Z,1000
2023-10-20T01:51:11.208Z,1000
2023-10-20T02:01:11.261Z,1000
2023-10-20T02:11:11.132Z,1000
2023-10-20T02:21:11.195Z,1000
2023-10-20T02:31:11.325Z,1000
2023-10-20T02:41:11.186Z,1000
2023-10-20T02:51:11.248Z,1000
2023-10-20T03:01:11.256Z,999
2023-10-20T03:11:11.227Z,999
2023-10-20T03:21:11.249Z,999
2023-10-20T03:31:11.179Z,999
2023-10-20T03:41:11.274Z,999
2023-10-20T03:51:11.126Z,999
2023-10-20T04:01:11.221Z,999
2023-10-20T04:11:11.176Z,999
2023-10-20T04:21:11.093Z,998
2023-10-20T04:31:11.178Z,998
2023-10-20T04:41:11.233Z,998
2023-10-20T04:51:11.237Z,998
2023-10-20T05:01:11.176Z,998
2023-10-20T05:11:11.072Z,998
2023-10-20T05:21:11.202Z,998
2023-10-20T05:31:11.198Z,998
2023-10-20T05:41:10.995Z,998
2023-10-20T05:51:11.114Z,998
2023-10-20T06:01:11.090Z,997
2023-10-20T06:11:10.991Z,997
2023-10-20T06:21:11.084Z,998
2023-10-20T06:31:11.099Z,997
2023-10-20T06:41:11.026Z,998
2023-10-20T06:51:11.033Z,998
2023-10-20T07:01:11.127Z,997
2023-10-20T07:11:11.230Z,997
2023-10-20T07:21:11.044Z,997
2023-10-20T07:31:11.001Z,997
2023-10-20T07:41:11.196Z,997
2023-10-20T07:51:11.009Z,997
2023-10-20T08:01:10.998Z,997
2023-10-20T08:11:11.147Z,997
2023-10-20T08:21:11.095Z,997
2023-10-20T08:31:10.867Z,997
2023-10-20T08:41:13.507Z,997
2023-10-20T08:51:10.856Z,997
2023-10-20T09:01:10.892Z,996
2023-10-20T09:11:10.848Z,996
2023-10-20T09:21:10.816Z,996
2023-10-20T09:31:11.606Z,996
2023-10-20T09:41:10.838Z,996
2023-10-20T09:51:10.796Z,995
2023-10-20T10:01:10.855Z,996
2023-10-20T10:11:10.808Z,996
2023-10-20T10:21:10.807Z,995
2023-10-20T10:31:10.805Z,995
2023-10-20T10:41:10.807Z,995
2023-10-20T10:51:10.744Z,995
2023-10-20T11:01:10.800Z,995
2023-10-20T11:11:10.743Z,994
2023-10-20T11:21:11.994Z,994
2023-10-20T11:31:10.742Z,994
2023-10-20T11:41:10.814Z,994
2023-10-20T11:51:12.189Z,994
2023-10-20T12:01:10.728Z,994
2023-10-20T12:11:10.895Z,994
2023-10-20T12:21:12.126Z,994
2023-10-20T12:31:10.773Z,995
2023-10-20T12:41:10.869Z,995
2023-10-20T12:51:10.801Z,995
2023-10-20T13:01:12.592Z,995
2023-10-20T13:11:10.839Z,996
2023-10-20T13:21:10.629Z,996
2023-10-20T13:31:11.762Z,996
2023-10-20T13:41:10.743Z,996
2023-10-20T13:51:10.896Z,996
2023-10-20T14:01:10.722Z,996
2023-10-20T14:11:11.656Z,996
2023-10-20T14:21:10.689Z,996
2023-10-20T14:31:10.613Z,996
2023-10-20T14:41:10.569Z,995
2023-10-20T14:51:10.516Z,996
2023-10-20T15:01:10.491Z,995
2023-10-20T15:11:10.600Z,995
2023-10-20T15:21:10.648Z,995
2023-10-20T15:31:10.538Z,995
2023-10-20T15:41:10.625Z,995
2023-10-20T15:51:10.476Z,996
2023-10-20T16:01:10.631Z,995
2023-10-20T16:11:10.452Z,995
2023-10-20T16:21:10.716Z,995
2023-10-20T16:31:10.612Z,995
2023-10-20T16:41:10.562Z,996
2023-10-20T16:51:10.543Z,996
2023-10-20T17:01:10.590Z,996
2023-10-20T17:11:10.531Z,997
2023-10-20T17:21:10.444Z,997
2023-10-20T17:31:10.523Z,996
2023-10-20T17:41:10.513Z,996
2023-10-20T17:51:10.780Z,996
2023-10-20T18:01:10.570Z,996
2023-10-20T18:11:10.548Z,997
2023-10-20T18:21:10.399Z,998
2023-10-20T18:31:10.368Z,997
2023-10-20T18:41:10.333Z,998
2023-10-20T18:51:10.357Z,998
2023-10-20T19:01:10.387Z,997
2023-10-20T19:11:10.320Z,998
2023-10-20T19:21:10.468Z,997
2023-10-20T19:31:10.495Z,997
2023-10-20T19:41:10.296Z,997
2023-10-20T19:51:10.419Z,998
2023-10-20T20:01:10.409Z,998
2023-10-20T20:11:10.296Z,998
2023-10-20T20:21:10.324Z,998
2023-10-20T20:31:10.286Z,998
2023-10-20T20:41:10.276Z,999
2023-10-20T20:51:10.308Z,999
2023-10-20T21:01:10.300Z,1000
2023-10-20T21:11:10.250Z,1000
2023-10-20T21:21:10.265Z,1000
2023-10-20T21:31:10.298Z,1000
2023-10-20T21:41:17.727Z,1000
2023-10-20T21:51:10.199Z,1000
2023-10-20T22:01:10.638Z,1000
2023-10-20T22:11:10.257Z,999
2023-10-20T22:21:10.446Z,1000
2023-10-20T22:31:10.284Z,1000
2023-10-20T22:41:10.262Z,1000
2023-10-20T22:51:10.151Z,1000
2023-10-20T23:01:10.291Z,1001
2023-10-20T23:11:10.126Z,1001
2023-10-20T23:21:10.284Z,1001
2023-10-20T23:31:10.313Z,1001
2023-10-20T23:41:10.161Z,1001
2023-10-20T23:51:10.311Z,1001
